Time,TemperatureF,DewpointF,PressureIn,WindDirection,WindDirectionDegrees,WindSpeedMPH,WindSpeedGustMPH,Humidity,HourlyPrecipIn,Conditions,Clouds,dailyrainin,SoftwareType,DateUTC
2013-01-19 00:07:00,39.2,39.0,29.29,ENE,64,3.0,9.0,97,0.00,,,0.42,weatherlink.com 1.10,2013-01-19 00:07:00,
2013-01-19 00:22:00,38.8,38.0,29.30,SW,217,1.0,9.0,97,0.00,,,0.42,weatherlink.com 1.10,2013-01-19 00:22:00,
2013-01-19 00:37:00,38.9,38.0,29.30,ENE,62,4.0,8.0,97,0.00,,,0.00,weatherlink.com 1.10,2013-01-19 00:37:00,
2013-01-19 00:52:00,39.1,38.0,29.30,NE,56,1.0,9.0,97,0.00,,,0.00,weatherlink.com 1.10,2013-01-19 00:52:00,
2013-01-19 01:07:00,39.1,38.0,29.31,NE,48,3.0,10.0,97,0.00,,,0.00,weatherlink.com 1.10,2013-01-19 01:07:00,
2013-01-19 01:22:00,39.0,38.0,29.31,East,90,7.0,12.0,97,0.00,,,0.00,weatherlink.com 1.10,2013-01-19 01:22:00,
2013-01-19 01:52:00,38.9,38.0,29.32,SSW,198,1.0,9.0,97,0.00,,,0.00,weatherlink.com 1.10,2013-01-19 01:52:00,
2013-01-19 02:07:00,38.7,38.0,29.33,ENE,68,2.0,8.0,97,0.00,,,0.00,weatherlink.com 1.10,2013-01-19 02:07:00,
2013-01-19 02:22:00,38.7,38.0,29.34,ESE,122,4.0,9.0,97,0.00,,,0.00,weatherlink.com 1.10,2013-01-19 02:22:00,
2013-01-19 02:37:00,38.5,38.0,29.34,NE,46,3.0,10.0,97,0.00,,,0.00,weatherlink.com 1.10,2013-01-19 02:37:00,
2013-01-19 02:52:00,38.6,38.0,29.35,ENE,64,1.0,8.0,97,0.00,,,0.00,weatherlink.com 1.10,2013-01-19 02:52:00,
2013-01-19 03:07:00,38.4,38.0,29.36,ENE,63,2.0,7.0,97,0.00,,,0.00,weatherlink.com 1.10,2013-01-19 03:07:00,
2013-01-19 03:22:00,38.4,38.0,29.36,ENE,63,1.0,8.0,97,0.00,,,0.00,weatherlink.com 1.10,2013-01-19 03:22:00,
2013-01-19 03:37:00,38.3,38.0,29.37,SW,228,2.0,7.0,97,0.00,,,0.00,weatherlink.com 1.10,2013-01-19 03:37:00,
2013-01-19 03:52:00,38.3,38.0,29.37,West,281,1.0,9.0,97,0.00,,,0.00,weatherlink.com 1.10,2013-01-19 03:52:00,
2013-01-19 04:07:00,38.1,37.0,29.38,WSW,250,1.0,6.0,97,0.00,,,0.00,weatherlink.com 1.10,2013-01-19 04:07:00,
2013-01-19 04:22:00,38.0,37.0,29.39,ESE,122,2.0,9.0,97,0.00,,,0.00,weatherlink.com 1.10,2013-01-19 04:22:00,
2013-01-19 04:37:00,37.9,37.0,29.39,SSE,160,2.0,10.0,97,0.00,,,0.00,weatherlink.com 1.10,2013-01-19 04:37:00,
2013-01-19 04:52:00,37.6,37.0,29.40,SE,125,1.0,10.0,97,0.00,,,0.00,weatherlink.com 1.10,2013-01-19 04:52:00,
2013-01-19 05:08:00,37.3,37.0,29.40,SSE,167,4.0,9.0,97,0.00,,,0.00,weatherlink.com 1.10,2013-01-19 05:08:00,
2013-01-19 05:23:00,37.1,36.0,29.41,SW,217,7.0,7.0,97,0.00,,,0.00,weatherlink.com 1.10,2013-01-19 05:23:00,
2013-01-19 05:38:00,36.9,36.0,29.41,ENE,72,4.0,7.0,97,0.00,,,0.00,weatherlink.com 1.10,2013-01-19 05:38:00,
2013-01-19 05:53:00,36.6,36.0,29.42,ENE,72,4.0,7.0,97,0.00,,,0.00,weatherlink.com 1.10,2013-01-19 05:53:00,
2013-01-19 06:08:00,36.4,36.0,29.42,ENE,69,3.0,8.0,97,0.00,,,0.00,weatherlink.com 1.10,2013-01-19 06:08:00,
2013-01-19 06:23:00,36.3,36.0,29.43,SSE,149,2.0,8.0,97,0.00,,,0.00,weatherlink.com 1.10,2013-01-19 06:23:00,
2013-01-19 06:38:00,36.3,36.0,29.43,NNE,16,2.0,8.0,97,0.00,,,0.00,weatherlink.com 1.10,2013-01-19 06:38:00,
2013-01-19 06:53:00,36.3,36.0,29.44,WSW,242,1.0,6.0,97,0.00,,,0.00,weatherlink.com 1.10,2013-01-19 06:53:00,
2013-01-19 07:08:00,36.2,36.0,29.45,South,176,2.0,6.0,97,0.00,,,0.00,weatherlink.com 1.10,2013-01-19 07:08:00,
2013-01-19 07:23:00,35.8,35.0,29.45,SW,222,1.0,5.0,97,0.00,,,0.00,weatherlink.com 1.10,2013-01-19 07:23:00,
2013-01-19 07:38:00,35.7,35.0,29.46,South,184,4.0,4.0,97,0.00,,,0.00,weatherlink.com 1.10,2013-01-19 07:38:00,
2013-01-19 07:53:00,35.7,35.0,29.46,West,263,2.0,3.0,97,0.00,,,0.00,weatherlink.com 1.10,2013-01-19 07:53:00,
2013-01-19 08:08:00,36.0,35.0,29.47,South,169,3.0,5.0,97,0.00,,,0.00,weatherlink.com 1.10,2013-01-19 08:08:00,
2013-01-19 08:23:00,36.3,36.0,29.48,ESE,122,1.0,7.0,98,0.00,,,0.00,weatherlink.com 1.10,2013-01-19 08:23:00,
2013-01-19 08:38:00,36.4,36.0,29.48,SSE,165,1.0,3.0,97,0.00,,,0.00,weatherlink.com 1.10,2013-01-19 08:38:00,
2013-01-19 08:53:00,36.4,36.0,29.48,WSW,245,3.0,5.0,97,0.00,,,0.00,weatherlink.com 1.10,2013-01-19 08:53:00,
2013-01-19 09:08:00,36.6,36.0,29.49,ESE,106,0.0,5.0,97,0.00,,,0.00,weatherlink.com 1.10,2013-01-19 09:08:00,
2013-01-19 09:23:00,36.5,36.0,29.50,NE,42,1.0,4.0,97,0.00,,,0.00,weatherlink.com 1.10,2013-01-19 09:23:00,
2013-01-19 09:38:00,36.4,36.0,29.51,SSE,160,2.0,7.0,97,0.00,,,0.00,weatherlink.com 1.10,2013-01-19 09:38:00,
2013-01-19 09:53:00,36.4,36.0,29.51,ENE,77,2.0,3.0,97,0.00,,,0.00,weatherlink.com 1.10,2013-01-19 09:53:00,
2013-01-19 10:08:00,36.4,36.0,29.52,SW,228,0.0,3.0,97,0.00,,,0.00,weatherlink.com 1.10,2013-01-19 10:08:00,
2013-01-19 10:23:00,36.3,36.0,29.52,South,180,3.0,4.0,97,0.00,,,0.00,weatherlink.com 1.10,2013-01-19 10:23:00,
2013-01-19 10:38:00,36.0,35.0,29.52,ENE,74,1.0,5.0,97,0.00,,,0.00,weatherlink.com 1.10,2013-01-19 10:38:00,
2013-01-19 10:53:00,36.1,35.0,29.53,SSE,154,2.0,5.0,97,0.00,,,0.00,weatherlink.com 1.10,2013-01-19 10:53:00,
2013-01-19 11:08:00,35.8,35.0,29.53,ENE,66,0.0,5.0,97,0.00,,,0.00,weatherlink.com 1.10,2013-01-19 11:08:00,
2013-01-19 12:54:00,36.0,35.0,29.53,NE,54,1.0,4.0,97,0.00,,,0.00,weatherlink.com 1.10,2013-01-19 12:54:00,
2013-01-19 13:09:00,36.3,36.0,29.53,WSW,252,1.0,4.0,97,0.00,,,0.00,weatherlink.com 1.10,2013-01-19 13:09:00,
2013-01-19 13:24:00,36.2,36.0,29.53,East,88,0.0,2.0,97,0.00,,,0.00,weatherlink.com 1.10,2013-01-19 13:24:00,
2013-01-19 13:39:00,36.1,35.0,29.54,SSW,211,0.0,2.0,97,0.00,,,0.00,weatherlink.com 1.10,2013-01-19 13:39:00,
2013-01-19 13:54:00,36.0,35.0,29.54,SW,214,0.0,1.0,97,0.00,,,0.00,weatherlink.com 1.10,2013-01-19 13:54:00,
2013-01-19 14:09:00,35.9,35.0,29.54,SW,214,0.0,1.0,97,0.00,,,0.00,weatherlink.com 1.10,2013-01-19 14:09:00,
2013-01-19 14:24:00,36.0,35.0,29.55,NW,309,0.0,1.0,96,0.00,,,0.00,weatherlink.com 1.10,2013-01-19 14:24:00,
2013-01-19 14:39:00,36.1,35.0,29.55,SW,235,0.0,0.0,97,0.00,,,0.00,weatherlink.com 1.10,2013-01-19 14:39:00,
2013-01-19 14:54:00,36.1,35.0,29.56,WSW,242,0.0,0.0,96,0.00,,,0.00,weatherlink.com 1.10,2013-01-19 14:54:00,
2013-01-19 15:09:00,36.3,35.0,29.56,WSW,242,0.0,0.0,96,0.00,,,0.00,weatherlink.com 1.10,2013-01-19 15:09:00,
2013-01-19 15:24:00,36.1,35.0,29.56,ENE,78,2.0,3.0,96,0.00,,,0.00,weatherlink.com 1.10,2013-01-19 15:24:00,
2013-01-19 15:39:00,36.3,35.0,29.57,ENE,75,1.0,5.0,95,0.00,,,0.00,weatherlink.com 1.10,2013-01-19 15:39:00,
2013-01-19 15:54:00,36.9,35.0,29.57,East,89,0.0,5.0,93,0.00,,,0.00,weatherlink.com 1.10,2013-01-19 15:54:00,
2013-01-19 16:09:00,37.3,34.0,29.57,ENE,58,7.0,7.0,89,0.00,,,0.00,weatherlink.com 1.10,2013-01-19 16:09:00,
2013-01-19 16:24:00,37.7,34.0,29.57,ENE,64,3.0,7.0,86,0.00,,,0.00,weatherlink.com 1.10,2013-01-19 16:24:00,
2013-01-19 16:39:00,37.9,33.0,29.58,East,80,2.0,7.0,83,0.00,,,0.00,weatherlink.com 1.10,2013-01-19 16:39:00,
2013-01-19 16:55:00,38.0,33.0,29.58,ENE,58,3.0,6.0,82,0.00,,,0.00,weatherlink.com 1.10,2013-01-19 16:55:00,
2013-01-19 17:09:00,38.1,33.0,29.59,NE,36,3.0,5.0,82,0.00,,,0.00,weatherlink.com 1.10,2013-01-19 17:09:00,
2013-01-19 17:24:00,37.9,33.0,29.59,East,90,6.0,9.0,83,0.00,,,0.00,weatherlink.com 1.10,2013-01-19 17:24:00,
2013-01-19 17:39:00,37.7,34.0,29.59,ENE,60,4.0,6.0,85,0.00,,,0.00,weatherlink.com 1.10,2013-01-19 17:39:00,
2013-01-19 18:09:00,38.0,33.0,29.59,NE,56,3.0,8.0,83,0.00,,,0.00,weatherlink.com 1.10,2013-01-19 18:09:00,
2013-01-19 18:24:00,38.1,33.0,29.59,ESE,106,5.0,5.0,83,0.00,,,0.00,weatherlink.com 1.10,2013-01-19 18:24:00,
2013-01-19 18:39:00,38.1,34.0,29.59,ENE,63,3.0,7.0,84,0.00,,,0.00,weatherlink.com 1.10,2013-01-19 18:39:00,
2013-01-19 18:54:00,38.2,34.0,29.59,ENE,75,4.0,7.0,83,0.00,,,0.00,weatherlink.com 1.10,2013-01-19 18:54:00,
2013-01-19 19:09:00,38.3,34.0,29.59,East,84,7.0,8.0,83,0.00,,,0.00,weatherlink.com 1.10,2013-01-19 19:09:00,
2013-01-19 19:24:00,38.2,34.0,29.59,East,97,8.0,9.0,83,0.00,,,0.00,weatherlink.com 1.10,2013-01-19 19:24:00,
2013-01-19 19:39:00,38.2,33.0,29.59,ENE,65,3.0,10.0,82,0.00,,,0.00,weatherlink.com 1.10,2013-01-19 19:39:00,
2013-01-19 19:54:00,38.3,33.0,29.59,ENE,70,4.0,6.0,81,0.00,,,0.00,weatherlink.com 1.10,2013-01-19 19:54:00,
2013-01-19 20:09:00,38.3,33.0,29.59,NE,56,3.0,10.0,81,0.00,,,0.00,weatherlink.com 1.10,2013-01-19 20:09:00,
2013-01-19 20:24:00,38.4,33.0,29.60,ENE,71,7.0,11.0,81,0.00,,,0.00,weatherlink.com 1.10,2013-01-19 20:24:00,
2013-01-19 20:39:00,38.4,33.0,29.60,ENE,75,4.0,8.0,80,0.00,,,0.00,weatherlink.com 1.10,2013-01-19 20:39:00,
2013-01-19 20:54:00,38.4,33.0,29.60,ENE,70,2.0,10.0,80,0.00,,,0.00,weatherlink.com 1.10,2013-01-19 20:54:00,
2013-01-19 21:25:00,38.4,32.0,29.60,ENE,67,6.0,11.0,77,0.00,,,0.00,weatherlink.com 1.10,2013-01-19 21:25:00,
2013-01-19 21:39:00,38.3,32.0,29.60,East,85,5.0,11.0,78,0.00,,,0.00,weatherlink.com 1.10,2013-01-19 21:39:00,
2013-01-19 21:55:00,38.2,31.0,29.60,ENE,76,5.0,9.0,75,0.00,,,0.00,weatherlink.com 1.10,2013-01-19 21:55:00,
2013-01-19 22:24:00,38.1,31.0,29.60,NE,37,4.0,9.0,74,0.00,,,0.00,weatherlink.com 1.10,2013-01-19 22:24:00,
2013-01-19 22:39:00,38.0,30.0,29.60,ENE,70,3.0,11.0,73,0.00,,,0.00,weatherlink.com 1.10,2013-01-19 22:39:00,
2013-01-19 22:55:00,37.7,30.0,29.60,ENE,74,7.0,9.0,75,0.00,,,0.00,weatherlink.com 1.10,2013-01-19 22:55:00,
2013-01-19 23:25:00,37.9,30.0,29.59,ENE,74,5.0,13.0,74,0.00,,,0.00,weatherlink.com 1.10,2013-01-19 23:25:00,
2013-01-19 23:40:00,37.9,31.0,29.59,ESE,121,3.0,9.0,76,0.00,,,0.00,weatherlink.com 1.10,2013-01-19 23:40:00,
2013-01-19 23:55:00,38.1,31.0,29.59,ENE,75,4.0,13.0,76,0.00,,,0.00,weatherlink.com 1.10,2013-01-19 23:55:00,